CMP307 MPTO-SKCL
Flight info
| Callsign | CMP307 |
|---|---|
| Flight time | 1h 6m |
| Altitude | 37000 |
| Route | DANDA DCT IRATA UN420 BUSMO UW90 ASIKO ASIKO1C |
| Aircraft | B738/M-SDE2E3FGHIRWXY/LB1 |
Departure
| Time | 2026-05-07 19:51 |
|---|---|
| Airport | Tocumen International Airport (MPTO) |
Arrival
| Time | 2026-05-07 20:57 |
|---|---|
| Airport | Alfonso Bonilla Aragon International Airport (SKCL) |
| Time | Latitude | Longitude | Altitude | Speed | Heading |
|---|---|---|---|---|---|
| 2026-05-07 19:37 | 9.06307 | -79.38892 | 2 ft | 0 kts | 282° |
| 2026-05-07 19:42 | 9.06305 | -79.38884 | 29 ft | 3 kts | 279° |
| 2026-05-07 19:42 | 9.06303 | -79.38864 | 29 ft | 3 kts | 269° |
| 2026-05-07 19:43 | 9.06304 | -79.38844 | 29 ft | 3 kts | 256° |
| 2026-05-07 19:43 | 9.06311 | -79.38825 | 29 ft | 3 kts | 236° |
| 2026-05-07 19:43 | 9.06323 | -79.38812 | 29 ft | 3 kts | 197° |
| 2026-05-07 19:43 | 9.06329 | -79.38810 | 29 ft | 1 kts | 185° |
| 2026-05-07 19:45 | 9.06322 | -79.38811 | 29 ft | 3 kts | 185° |
| 2026-05-07 19:46 | 9.06268 | -79.38812 | 29 ft | 11 kts | 182° |
| 2026-05-07 19:46 | 9.06188 | -79.38833 | 29 ft | 12 kts | 207° |
| 2026-05-07 19:46 | 9.06119 | -79.38884 | 29 ft | 12 kts | 219° |
| 2026-05-07 19:46 | 9.06048 | -79.38882 | 29 ft | 12 kts | 130° |
| 2026-05-07 19:47 | 9.06006 | -79.38811 | 29 ft | 11 kts | 121° |
| 2026-05-07 19:47 | 9.05946 | -79.38768 | 29 ft | 11 kts | 185° |
| 2026-05-07 19:47 | 9.05868 | -79.38808 | 29 ft | 15 kts | 209° |
| 2026-05-07 19:47 | 9.05759 | -79.38871 | 29 ft | 20 kts | 210° |
| 2026-05-07 19:48 | 9.05630 | -79.38947 | 29 ft | 22 kts | 210° |
| 2026-05-07 19:48 | 9.05502 | -79.39022 | 29 ft | 21 kts | 210° |
| 2026-05-07 19:48 | 9.05376 | -79.39094 | 29 ft | 20 kts | 210° |
| 2026-05-07 19:48 | 9.05255 | -79.39164 | 29 ft | 20 kts | 210° |
| 2026-05-07 19:49 | 9.05137 | -79.39231 | 29 ft | 19 kts | 210° |
| 2026-05-07 19:49 | 9.05025 | -79.39296 | 29 ft | 19 kts | 210° |
| 2026-05-07 19:49 | 9.04919 | -79.39357 | 29 ft | 15 kts | 210° |
| 2026-05-07 19:49 | 9.04842 | -79.39377 | 29 ft | 11 kts | 149° |
| 2026-05-07 19:50 | 9.04803 | -79.39311 | 30 ft | 11 kts | 118° |
| 2026-05-07 19:50 | 9.04797 | -79.39244 | 29 ft | 10 kts | 47° |
| 2026-05-07 19:50 | 9.04885 | -79.39191 | 30 ft | 34 kts | 29° |
| 2026-05-07 19:50 | 9.05307 | -79.38951 | 30 ft | 104 kts | 29° |
| 2026-05-07 19:51 | 9.06114 | -79.38495 | 32 ft | 160 kts | 28° |
| 2026-05-07 19:51 | 9.07141 | -79.37930 | 522 ft | 171 kts | 27° |
| 2026-05-07 19:51 | 9.08211 | -79.37343 | 1191 ft | 177 kts | 37° |
| 2026-05-07 19:51 | 9.08862 | -79.36308 | 1754 ft | 189 kts | 82° |
| 2026-05-07 19:52 | 9.08700 | -79.34915 | 2115 ft | 213 kts | 102° |
| 2026-05-07 19:52 | 9.08335 | -79.33370 | 2226 ft | 239 kts | 101° |
| 2026-05-07 19:52 | 9.07981 | -79.31680 | 2650 ft | 250 kts | 100° |
| 2026-05-07 19:52 | 9.07658 | -79.29923 | 3278 ft | 255 kts | 98° |
| 2026-05-07 19:53 | 9.07373 | -79.28154 | 4149 ft | 254 kts | 98° |
| 2026-05-07 19:53 | 9.07110 | -79.26374 | 4941 ft | 258 kts | 97° |
| 2026-05-07 19:53 | 9.06857 | -79.24567 | 5737 ft | 260 kts | 97° |
| 2026-05-07 19:53 | 9.06606 | -79.22743 | 6468 ft | 264 kts | 97° |
| 2026-05-07 19:54 | 9.06161 | -79.20939 | 7068 ft | 267 kts | 117° |
| 2026-05-07 19:54 | 9.04983 | -79.19541 | 7893 ft | 269 kts | 143° |
| 2026-05-07 19:54 | 9.03243 | -79.18793 | 8482 ft | 281 kts | 171° |
| 2026-05-07 19:54 | 9.01274 | -79.19024 | 9055 ft | 293 kts | 199° |
| 2026-05-07 19:55 | 8.99388 | -79.19852 | 9757 ft | 297 kts | 202° |
| 2026-05-07 19:55 | 8.97507 | -79.20752 | 10380 ft | 301 kts | 203° |
| 2026-05-07 19:55 | 8.95605 | -79.21671 | 11007 ft | 305 kts | 203° |
| 2026-05-07 19:55 | 8.93691 | -79.22587 | 11652 ft | 309 kts | 202° |
| 2026-05-07 19:56 | 8.91732 | -79.23516 | 12298 ft | 313 kts | 202° |
| 2026-05-07 19:56 | 8.89746 | -79.24448 | 12954 ft | 317 kts | 201° |
| 2026-05-07 19:56 | 8.87725 | -79.25393 | 13620 ft | 321 kts | 201° |
| 2026-05-07 19:56 | 8.85677 | -79.26348 | 14234 ft | 325 kts | 201° |
| 2026-05-07 19:57 | 8.83609 | -79.27312 | 14866 ft | 329 kts | 201° |
| 2026-05-07 19:57 | 8.81466 | -79.28307 | 15062 ft | 349 kts | 201° |
| 2026-05-07 19:57 | 8.79195 | -79.29360 | 15212 ft | 369 kts | 201° |
| 2026-05-07 19:57 | 8.76849 | -79.30451 | 15543 ft | 380 kts | 202° |
| 2026-05-07 19:58 | 8.74431 | -79.31578 | 16080 ft | 384 kts | 202° |
| 2026-05-07 19:58 | 8.71993 | -79.32716 | 16698 ft | 386 kts | 202° |
| 2026-05-07 19:58 | 8.69544 | -79.33858 | 17286 ft | 389 kts | 202° |
| 2026-05-07 19:58 | 8.67107 | -79.34992 | 17834 ft | 392 kts | 202° |
| 2026-05-07 19:59 | 8.64614 | -79.36152 | 18363 ft | 396 kts | 202° |
| 2026-05-07 19:59 | 8.62055 | -79.37197 | 18796 ft | 397 kts | 190° |
| 2026-05-07 19:59 | 8.59325 | -79.37361 | 19227 ft | 393 kts | 170° |
| 2026-05-07 19:59 | 8.56706 | -79.36661 | 19702 ft | 389 kts | 153° |
| 2026-05-07 20:00 | 8.54284 | -79.35443 | 20164 ft | 390 kts | 149° |
| 2026-05-07 20:00 | 8.51875 | -79.34155 | 20597 ft | 394 kts | 149° |
| 2026-05-07 20:00 | 8.49446 | -79.32839 | 21036 ft | 397 kts | 149° |
| 2026-05-07 20:00 | 8.46997 | -79.31514 | 21480 ft | 400 kts | 149° |
| 2026-05-07 20:01 | 8.44525 | -79.30188 | 21930 ft | 403 kts | 149° |
| 2026-05-07 20:01 | 8.42032 | -79.28861 | 22362 ft | 406 kts | 149° |
| 2026-05-07 20:01 | 8.39552 | -79.27548 | 22782 ft | 409 kts | 149° |
| 2026-05-07 20:01 | 8.37018 | -79.26211 | 23183 ft | 412 kts | 149° |
| 2026-05-07 20:02 | 8.34467 | -79.24868 | 23571 ft | 415 kts | 149° |
| 2026-05-07 20:02 | 8.31889 | -79.23513 | 23906 ft | 418 kts | 149° |
| 2026-05-07 20:02 | 8.29307 | -79.22157 | 24268 ft | 419 kts | 149° |
| 2026-05-07 20:02 | 8.26706 | -79.20791 | 24629 ft | 421 kts | 150° |
| 2026-05-07 20:03 | 8.24097 | -79.19421 | 24973 ft | 423 kts | 150° |
| 2026-05-07 20:03 | 8.21477 | -79.18045 | 25294 ft | 426 kts | 150° |
| 2026-05-07 20:03 | 8.18837 | -79.16659 | 25631 ft | 428 kts | 150° |
| 2026-05-07 20:03 | 8.16191 | -79.15269 | 25945 ft | 431 kts | 150° |
| 2026-05-07 20:04 | 8.13516 | -79.13864 | 26268 ft | 433 kts | 150° |
| 2026-05-07 20:04 | 8.10868 | -79.12475 | 26586 ft | 435 kts | 150° |
| 2026-05-07 20:04 | 8.08176 | -79.11062 | 26918 ft | 438 kts | 151° |
| 2026-05-07 20:04 | 8.05470 | -79.09642 | 27226 ft | 440 kts | 151° |
| 2026-05-07 20:05 | 8.02750 | -79.08214 | 27536 ft | 442 kts | 151° |
| 2026-05-07 20:05 | 8.00013 | -79.06778 | 27838 ft | 444 kts | 151° |
| 2026-05-07 20:05 | 7.97268 | -79.05338 | 28130 ft | 446 kts | 151° |
| 2026-05-07 20:05 | 7.94504 | -79.03888 | 28400 ft | 449 kts | 151° |
| 2026-05-07 20:06 | 7.91720 | -79.02428 | 28680 ft | 451 kts | 151° |
| 2026-05-07 20:06 | 7.88933 | -79.00967 | 28968 ft | 452 kts | 152° |
| 2026-05-07 20:06 | 7.87082 | -78.99997 | 29151 ft | 454 kts | 152° |
| 2026-05-07 20:06 | 7.83354 | -78.98042 | 29511 ft | 456 kts | 152° |
| 2026-05-07 20:07 | 7.80526 | -78.96560 | 29759 ft | 459 kts | 152° |
| 2026-05-07 20:07 | 7.78641 | -78.95572 | 29907 ft | 461 kts | 152° |
| 2026-05-07 20:07 | 7.75784 | -78.94075 | 30125 ft | 463 kts | 152° |
| 2026-05-07 20:07 | 7.72922 | -78.92575 | 30363 ft | 464 kts | 152° |
| 2026-05-07 20:08 | 7.70044 | -78.91068 | 30587 ft | 466 kts | 152° |
| 2026-05-07 20:08 | 7.67156 | -78.89555 | 30787 ft | 467 kts | 152° |
| 2026-05-07 20:08 | 7.64267 | -78.88042 | 31011 ft | 468 kts | 152° |
| 2026-05-07 20:08 | 7.61373 | -78.86526 | 31299 ft | 468 kts | 152° |
| 2026-05-07 20:09 | 7.58523 | -78.85034 | 31622 ft | 467 kts | 152° |
| 2026-05-07 20:09 | 7.55640 | -78.83524 | 31920 ft | 466 kts | 152° |
| 2026-05-07 20:09 | 7.52763 | -78.82019 | 32217 ft | 466 kts | 153° |
| 2026-05-07 20:10 | 7.47040 | -78.78945 | 32796 ft | 465 kts | 150° |
| 2026-05-07 20:10 | 7.44245 | -78.77284 | 33058 ft | 466 kts | 149° |
| 2026-05-07 20:10 | 7.41476 | -78.75583 | 33375 ft | 465 kts | 148° |
| 2026-05-07 20:10 | 7.38714 | -78.73871 | 33644 ft | 466 kts | 148° |
| 2026-05-07 20:11 | 7.35947 | -78.72162 | 33891 ft | 467 kts | 148° |
| 2026-05-07 20:11 | 7.33201 | -78.70477 | 34127 ft | 467 kts | 149° |
| 2026-05-07 20:11 | 7.30424 | -78.68782 | 34451 ft | 464 kts | 149° |
| 2026-05-07 20:11 | 7.27663 | -78.67104 | 34805 ft | 461 kts | 149° |
| 2026-05-07 20:12 | 7.24908 | -78.65434 | 34977 ft | 464 kts | 149° |
| 2026-05-07 20:12 | 7.22133 | -78.63754 | 35124 ft | 466 kts | 149° |
| 2026-05-07 20:12 | 7.19356 | -78.62074 | 35365 ft | 465 kts | 149° |
| 2026-05-07 20:12 | 7.16587 | -78.60397 | 35656 ft | 464 kts | 149° |
| 2026-05-07 20:13 | 7.13821 | -78.58723 | 35924 ft | 463 kts | 149° |
| 2026-05-07 20:13 | 7.11056 | -78.57049 | 36133 ft | 464 kts | 149° |
| 2026-05-07 20:13 | 7.08287 | -78.55373 | 36335 ft | 464 kts | 149° |
| 2026-05-07 20:13 | 7.05554 | -78.53718 | 36572 ft | 464 kts | 149° |
| 2026-05-07 20:14 | 7.02794 | -78.52047 | 36813 ft | 463 kts | 149° |
| 2026-05-07 20:14 | 7.00035 | -78.50378 | 36958 ft | 464 kts | 149° |
| 2026-05-07 20:14 | 6.97224 | -78.48677 | 36947 ft | 467 kts | 149° |
| 2026-05-07 20:15 | 6.91704 | -78.45337 | 36952 ft | 463 kts | 149° |
| 2026-05-07 20:15 | 6.86182 | -78.41997 | 36951 ft | 460 kts | 149° |
| 2026-05-07 20:16 | 6.80728 | -78.38699 | 36958 ft | 458 kts | 149° |
| 2026-05-07 20:16 | 6.75267 | -78.35397 | 36949 ft | 457 kts | 149° |
| 2026-05-07 20:17 | 6.69817 | -78.32116 | 36960 ft | 456 kts | 150° |
| 2026-05-07 20:17 | 6.64327 | -78.28897 | 36964 ft | 456 kts | 150° |
| 2026-05-07 20:18 | 6.58866 | -78.25718 | 36960 ft | 457 kts | 150° |
| 2026-05-07 20:18 | 6.53362 | -78.22505 | 36971 ft | 458 kts | 150° |
| 2026-05-07 20:19 | 6.47832 | -78.19270 | 36956 ft | 460 kts | 150° |
| 2026-05-07 20:19 | 6.42293 | -78.16028 | 36951 ft | 461 kts | 150° |
| 2026-05-07 20:20 | 6.36745 | -78.12781 | 36955 ft | 461 kts | 150° |
| 2026-05-07 20:20 | 6.31226 | -78.09552 | 36958 ft | 451 kts | 150° |
| 2026-05-07 20:20 | 6.28557 | -78.07991 | 36940 ft | 437 kts | 150° |
| 2026-05-07 20:21 | 6.26000 | -78.06496 | 36930 ft | 426 kts | 150° |
| 2026-05-07 20:21 | 6.20893 | -78.03509 | 36958 ft | 425 kts | 150° |
| 2026-05-07 20:22 | 6.15778 | -78.00520 | 36968 ft | 425 kts | 150° |
| 2026-05-07 20:22 | 6.10712 | -77.97559 | 36969 ft | 426 kts | 150° |
| 2026-05-07 20:23 | 6.05570 | -77.94555 | 36966 ft | 428 kts | 150° |
| 2026-05-07 20:23 | 6.00419 | -77.91545 | 36966 ft | 429 kts | 150° |
| 2026-05-07 20:24 | 5.95250 | -77.88526 | 36967 ft | 430 kts | 150° |
| 2026-05-07 20:24 | 5.90104 | -77.85522 | 36969 ft | 431 kts | 150° |
| 2026-05-07 20:25 | 5.84914 | -77.82492 | 36961 ft | 431 kts | 150° |
| 2026-05-07 20:25 | 5.79732 | -77.79467 | 36969 ft | 430 kts | 150° |
| 2026-05-07 20:26 | 5.74553 | -77.76445 | 36978 ft | 430 kts | 150° |
| 2026-05-07 20:26 | 5.69381 | -77.73428 | 36968 ft | 429 kts | 150° |
| 2026-05-07 20:27 | 5.64259 | -77.70440 | 36959 ft | 427 kts | 150° |
| 2026-05-07 20:27 | 5.59125 | -77.67446 | 36960 ft | 426 kts | 150° |
| 2026-05-07 20:28 | 5.54002 | -77.64459 | 36973 ft | 425 kts | 150° |
| 2026-05-07 20:28 | 5.48883 | -77.61475 | 36975 ft | 425 kts | 150° |
| 2026-05-07 20:29 | 5.43765 | -77.58492 | 36973 ft | 425 kts | 149° |
| 2026-05-07 20:29 | 5.38670 | -77.55523 | 36971 ft | 427 kts | 149° |
| 2026-05-07 20:30 | 5.33527 | -77.52527 | 36974 ft | 428 kts | 149° |
| 2026-05-07 20:30 | 5.28371 | -77.49523 | 36983 ft | 429 kts | 149° |
| 2026-05-07 20:31 | 5.23199 | -77.46511 | 36990 ft | 430 kts | 149° |
| 2026-05-07 20:31 | 5.18004 | -77.43487 | 36976 ft | 433 kts | 149° |
| 2026-05-07 20:32 | 5.12789 | -77.40451 | 36972 ft | 433 kts | 149° |
| 2026-05-07 20:32 | 5.07570 | -77.37413 | 36970 ft | 433 kts | 149° |
| 2026-05-07 20:33 | 5.02388 | -77.34398 | 36977 ft | 433 kts | 149° |
| 2026-05-07 20:33 | 4.97179 | -77.31367 | 36982 ft | 432 kts | 149° |
| 2026-05-07 20:34 | 4.91950 | -77.28325 | 36998 ft | 439 kts | 149° |
| 2026-05-07 20:34 | 4.86603 | -77.25215 | 36987 ft | 449 kts | 149° |
| 2026-05-07 20:35 | 4.81165 | -77.22053 | 36881 ft | 460 kts | 149° |
| 2026-05-07 20:35 | 4.78372 | -77.20429 | 36615 ft | 464 kts | 149° |
| 2026-05-07 20:35 | 4.75583 | -77.18807 | 36365 ft | 461 kts | 149° |
| 2026-05-07 20:35 | 4.72819 | -77.17201 | 36117 ft | 456 kts | 150° |
| 2026-05-07 20:36 | 4.70080 | -77.15609 | 35869 ft | 454 kts | 150° |
| 2026-05-07 20:36 | 4.67348 | -77.14021 | 35640 ft | 455 kts | 150° |
| 2026-05-07 20:36 | 4.64638 | -77.12446 | 35118 ft | 455 kts | 150° |
| 2026-05-07 20:36 | 4.61900 | -77.10855 | 34572 ft | 455 kts | 150° |
| 2026-05-07 20:37 | 4.59158 | -77.09262 | 33972 ft | 457 kts | 150° |
| 2026-05-07 20:37 | 4.56398 | -77.07659 | 33279 ft | 459 kts | 150° |
| 2026-05-07 20:37 | 4.53637 | -77.06054 | 32626 ft | 459 kts | 149° |
| 2026-05-07 20:37 | 4.50870 | -77.04447 | 31965 ft | 460 kts | 149° |
| 2026-05-07 20:38 | 4.48091 | -77.02833 | 31282 ft | 462 kts | 149° |
| 2026-05-07 20:38 | 4.45305 | -77.01215 | 30577 ft | 464 kts | 149° |
| 2026-05-07 20:38 | 4.42562 | -76.99622 | 29836 ft | 466 kts | 149° |
| 2026-05-07 20:38 | 4.39749 | -76.97988 | 28996 ft | 469 kts | 149° |
| 2026-05-07 20:39 | 4.36957 | -76.96367 | 28287 ft | 467 kts | 149° |
| 2026-05-07 20:39 | 4.34162 | -76.94744 | 27729 ft | 462 kts | 149° |
| 2026-05-07 20:39 | 4.31389 | -76.93134 | 27167 ft | 458 kts | 149° |
| 2026-05-07 20:39 | 4.28642 | -76.91539 | 26620 ft | 454 kts | 149° |
| 2026-05-07 20:40 | 4.25923 | -76.89960 | 26063 ft | 450 kts | 149° |
| 2026-05-07 20:40 | 4.23193 | -76.88426 | 25482 ft | 448 kts | 152° |
| 2026-05-07 20:40 | 4.20363 | -76.87148 | 24931 ft | 445 kts | 156° |
| 2026-05-07 20:40 | 4.17480 | -76.86021 | 24367 ft | 443 kts | 158° |
| 2026-05-07 20:41 | 4.14591 | -76.84944 | 23816 ft | 441 kts | 158° |
| 2026-05-07 20:41 | 4.11760 | -76.83887 | 23203 ft | 438 kts | 158° |
| 2026-05-07 20:41 | 4.08921 | -76.82806 | 22607 ft | 435 kts | 157° |
| 2026-05-07 20:41 | 4.06113 | -76.81716 | 22051 ft | 430 kts | 157° |
| 2026-05-07 20:42 | 4.03338 | -76.80623 | 21499 ft | 426 kts | 156° |
| 2026-05-07 20:42 | 4.00586 | -76.79530 | 20976 ft | 422 kts | 156° |
| 2026-05-07 20:42 | 3.97872 | -76.78447 | 20456 ft | 419 kts | 156° |
| 2026-05-07 20:42 | 3.95170 | -76.77368 | 19918 ft | 416 kts | 156° |
| 2026-05-07 20:43 | 3.92521 | -76.76310 | 19375 ft | 413 kts | 156° |
| 2026-05-07 20:43 | 3.89860 | -76.75248 | 18846 ft | 410 kts | 156° |
| 2026-05-07 20:43 | 3.87211 | -76.74189 | 18308 ft | 409 kts | 156° |
| 2026-05-07 20:43 | 3.84578 | -76.73137 | 17723 ft | 405 kts | 156° |
| 2026-05-07 20:44 | 3.81969 | -76.72098 | 17172 ft | 401 kts | 156° |
| 2026-05-07 20:44 | 3.79391 | -76.71071 | 16666 ft | 397 kts | 156° |
| 2026-05-07 20:44 | 3.76829 | -76.70049 | 16145 ft | 393 kts | 156° |
| 2026-05-07 20:44 | 3.74301 | -76.69042 | 15663 ft | 389 kts | 156° |
| 2026-05-07 20:45 | 3.71795 | -76.68046 | 15165 ft | 386 kts | 156° |
| 2026-05-07 20:45 | 3.69309 | -76.67056 | 14664 ft | 383 kts | 156° |
| 2026-05-07 20:45 | 3.66847 | -76.66076 | 14193 ft | 380 kts | 156° |
| 2026-05-07 20:45 | 3.64393 | -76.65097 | 13663 ft | 378 kts | 156° |
| 2026-05-07 20:46 | 3.61987 | -76.64136 | 13152 ft | 375 kts | 156° |
| 2026-05-07 20:46 | 3.59574 | -76.63173 | 12654 ft | 371 kts | 156° |
| 2026-05-07 20:46 | 3.57201 | -76.62228 | 12352 ft | 361 kts | 156° |
| 2026-05-07 20:46 | 3.54906 | -76.61314 | 12214 ft | 348 kts | 156° |
| 2026-05-07 20:47 | 3.52690 | -76.60432 | 12068 ft | 336 kts | 156° |
| 2026-05-07 20:47 | 3.50519 | -76.59659 | 11905 ft | 326 kts | 164° |
| 2026-05-07 20:47 | 3.48332 | -76.59262 | 11837 ft | 315 kts | 170° |
| 2026-05-07 20:47 | 3.46173 | -76.58997 | 11680 ft | 308 kts | 171° |
| 2026-05-07 20:48 | 3.44091 | -76.58750 | 11529 ft | 301 kts | 171° |
| 2026-05-07 20:48 | 3.42035 | -76.58489 | 11403 ft | 294 kts | 170° |
| 2026-05-07 20:48 | 3.40031 | -76.58219 | 11278 ft | 287 kts | 170° |
| 2026-05-07 20:48 | 3.38082 | -76.57947 | 11162 ft | 280 kts | 170° |
| 2026-05-07 20:49 | 3.36173 | -76.57675 | 11047 ft | 273 kts | 170° |
| 2026-05-07 20:49 | 3.34316 | -76.57409 | 10924 ft | 265 kts | 170° |
| 2026-05-07 20:49 | 3.32511 | -76.57148 | 10801 ft | 259 kts | 170° |
| 2026-05-07 20:49 | 3.30729 | -76.56890 | 10545 ft | 257 kts | 170° |
| 2026-05-07 20:50 | 3.29015 | -76.56592 | 10321 ft | 248 kts | 160° |
| 2026-05-07 20:50 | 3.27612 | -76.55683 | 10053 ft | 239 kts | 129° |
| 2026-05-07 20:50 | 3.26817 | -76.54235 | 9815 ft | 239 kts | 106° |
| 2026-05-07 20:50 | 3.26598 | -76.52589 | 9563 ft | 240 kts | 92° |
| 2026-05-07 20:51 | 3.26594 | -76.50910 | 9312 ft | 241 kts | 90° |
| 2026-05-07 20:51 | 3.26616 | -76.49227 | 9011 ft | 244 kts | 89° |
| 2026-05-07 20:51 | 3.26634 | -76.47538 | 8686 ft | 241 kts | 90° |
| 2026-05-07 20:51 | 3.26643 | -76.45882 | 8354 ft | 235 kts | 90° |
| 2026-05-07 20:52 | 3.26930 | -76.44304 | 8022 ft | 231 kts | 60° |
| 2026-05-07 20:52 | 3.28063 | -76.43293 | 7841 ft | 220 kts | 23° |
| 2026-05-07 20:52 | 3.29500 | -76.42800 | 7584 ft | 216 kts | 19° |
| 2026-05-07 20:52 | 3.30920 | -76.42358 | 7326 ft | 211 kts | 15° |
| 2026-05-07 20:53 | 3.32336 | -76.42027 | 7075 ft | 206 kts | 11° |
| 2026-05-07 20:53 | 3.33735 | -76.41759 | 6829 ft | 203 kts | 10° |
| 2026-05-07 20:53 | 3.35119 | -76.41514 | 6582 ft | 202 kts | 9° |
| 2026-05-07 20:53 | 3.36502 | -76.41276 | 6317 ft | 200 kts | 9° |
| 2026-05-07 20:54 | 3.37864 | -76.41039 | 6058 ft | 196 kts | 9° |
| 2026-05-07 20:54 | 3.39195 | -76.40807 | 5807 ft | 192 kts | 9° |
| 2026-05-07 20:54 | 3.40503 | -76.40580 | 5563 ft | 189 kts | 8° |
| 2026-05-07 20:54 | 3.41796 | -76.40356 | 5328 ft | 187 kts | 8° |
| 2026-05-07 20:55 | 3.43064 | -76.40134 | 5097 ft | 187 kts | 9° |
| 2026-05-07 20:55 | 3.44344 | -76.39910 | 4867 ft | 186 kts | 9° |
| 2026-05-07 20:55 | 3.45606 | -76.39689 | 4619 ft | 179 kts | 9° |
| 2026-05-07 20:55 | 3.46791 | -76.39483 | 4438 ft | 165 kts | 10° |
| 2026-05-07 20:56 | 3.47939 | -76.39283 | 4191 ft | 169 kts | 10° |
| 2026-05-07 20:56 | 3.49087 | -76.39082 | 3963 ft | 166 kts | 10° |
| 2026-05-07 20:56 | 3.50211 | -76.38886 | 3747 ft | 162 kts | 10° |
| 2026-05-07 20:56 | 3.51323 | -76.38690 | 3521 ft | 163 kts | 9° |
| 2026-05-07 20:57 | 3.52439 | -76.38493 | 3318 ft | 162 kts | 9° |
| 2026-05-07 20:57 | 3.53544 | -76.38299 | 3166 ft | 155 kts | 8° |
| 2026-05-07 20:57 | 3.54433 | -76.38146 | 3163 ft | 69 kts | 10° |
| 2026-05-07 20:57 | 3.54565 | -76.38129 | 3164 ft | 15 kts | 343° |
| 2026-05-07 20:58 | 3.54604 | -76.38202 | 3165 ft | 10 kts | 281° |
| 2026-05-07 20:58 | 3.54602 | -76.38268 | 3164 ft | 10 kts | 238° |
| 2026-05-07 20:58 | 3.54512 | -76.38296 | 3163 ft | 13 kts | 189° |
| 2026-05-07 20:58 | 3.54446 | -76.38307 | 3164 ft | 15 kts | 191° |
| 2026-05-07 20:59 | 3.54334 | -76.38328 | 3164 ft | 17 kts | 190° |
| 2026-05-07 20:59 | 3.54214 | -76.38348 | 3164 ft | 17 kts | 189° |
| 2026-05-07 20:59 | 3.54097 | -76.38371 | 3164 ft | 17 kts | 191° |
| 2026-05-07 20:59 | 3.53984 | -76.38389 | 3164 ft | 16 kts | 188° |
| 2026-05-07 21:00 | 3.53875 | -76.38406 | 3163 ft | 16 kts | 190° |
| 2026-05-07 21:00 | 3.53772 | -76.38425 | 3162 ft | 15 kts | 189° |
| 2026-05-07 21:00 | 3.53672 | -76.38442 | 3162 ft | 14 kts | 189° |
| 2026-05-07 21:00 | 3.53582 | -76.38459 | 3161 ft | 10 kts | 198° |
| 2026-05-07 21:01 | 3.53568 | -76.38513 | 3163 ft | 9 kts | 305° |
| 2026-05-07 21:01 | 3.53595 | -76.38571 | 3162 ft | 9 kts | 283° |
| 2026-05-07 21:01 | 3.53603 | -76.38614 | 3162 ft | 4 kts | 281° |
| 2026-05-07 21:01 | 3.53603 | -76.38616 | 3162 ft | 0 kts | 281° |